Home > Products > Valid Products > TAF

000
FTUS43 KILX 221900 AAA
TAFCMI
TAF AMD
KCMI 221944Z 2220/2318 19015G22KT P6SM VCSH BKN025 OVC035
      TEMPO 2220/2224 SCT025 BKN035
     FM230000 19014G18KT 6SM BR VCSH OVC025 WS020/22040KT
     FM230600 18013KT 3SM -RADZ BR OVC010 WS020/22040KT
     FM231500 17015G22KT 4SM BR VCSH OVC010=



000
FTUS43 KILX 221900 AAA
TAFDEC
TAF AMD
KDEC 221943Z 2220/2318 21017G26KT P6SM VCSH BKN025 OVC035
      TEMPO 2220/2224 SCT025 BKN035
     FM230000 18013G17KT 6SM BR VCSH OVC025 WS020/22040KT
     FM230600 17013KT 3SM -RADZ BR OVC010 WS020/22040KT
     FM231500 16014G20KT 4SM BR VCSH OVC010=



000
FTUS43 KILX 221900 AAA
TAFBMI
TAF AMD
KBMI 221942Z 2220/2318 21016G24KT P6SM VCSH OVC020
      TEMPO 2220/2224 6SM BR BKN015
     FM230000 19014G19KT 5SM BR VCSH OVC015 WS020/22040KT
     FM230600 18014KT 3SM -RADZ BR OVC007 WS020/22040KT
     FM231500 17016G22KT 4SM -DZ BR VCSH OVC007=



000
FTUS43 KILX 221900 AAB
TAFPIA
TAF AMD
KPIA 221941Z 2220/2318 22013G21KT P6SM BKN020 OVC035
      TEMPO 2220/2224 6SM BR SCT020 OVC030
     FM230000 19011G16KT 4SM BR VCSH OVC015 WS020/22040KT
     FM230600 18011KT 3SM -RADZ BR OVC007 WS020/22040KT
     FM231400 17013G18KT 3SM -SHRA BR OVC007=



000
FTUS43 KILX 221900 AAA
TAFSPI
TAF AMD
KSPI 221929Z 2219/2318 20017G25KT P6SM VCSH SCT025 BKN045
      TEMPO 2220/2224 BKN025
     FM230000 18013G17KT 6SM BR VCSH OVC025 WS020/22040KT
     FM230600 17012KT 3SM -RADZ BR OVC010 WS020/22040KT
     FM231400 16014G20KT 4SM BR VCSH OVC010=



000
FTUS43 KILX 221800 AAA
TAFPIA
TAF AMD
KPIA 221808Z 2218/2318 20012G18KT P6SM SCT020 OVC035
      TEMPO 2218/2220 6SM BR OVC025
     FM222000 20012G20KT 6SM BR VCSH OVC020
      TEMPO 2220/2224 4SM -SHRA BR OVC015
     FM230000 19011G16KT 4SM BR VCSH OVC010 WS020/22040KT
     FM230600 18011KT 3SM -RADZ BR OVC007 WS020/22040KT
     FM231400 17013G18KT 3SM -SHRA BR OVC007=



000
FTUS43 KILX 221700
TAFCMI
TAF
KCMI 221728Z 2218/2318 20015G22KT P6SM VCSH BKN035 OVC090
      TEMPO 2218/2220 BKN025
     FM222000 19015G22KT 6SM BR VCSH OVC025
     FM230000 19014G18KT 4SM BR VCSH OVC015 WS020/22040KT
     FM230600 18013KT 3SM -RADZ BR OVC010 WS020/22040KT
     FM231500 17015G22KT 4SM BR VCSH OVC010=



000
FTUS43 KILX 221700
TAFPIA
TAF
KPIA 221728Z 2218/2318 19012G18KT P6SM VCSH OVC025
      TEMPO 2218/2220 5SM BR OVC018
     FM222000 20012G20KT 6SM BR VCSH OVC020
      TEMPO 2220/2224 4SM -SHRA BR OVC015
     FM230000 19011G16KT 4SM BR VCSH OVC010 WS020/22040KT
     FM230600 18011KT 3SM -RADZ BR OVC007 WS020/22040KT
     FM231400 17013G18KT 3SM -SHRA BR OVC007=



000
FTUS43 KILX 221700
TAFBMI
TAF
KBMI 221728Z 2218/2318 20015G23KT P6SM VCSH OVC020
      TEMPO 2218/2221 BKN015
     FM222100 20015G22KT 6SM BR VCSH OVC015
      TEMPO 2221/2224 4SM -SHRA BR
     FM230000 19014G19KT 4SM BR VCSH OVC010 WS020/22040KT
     FM230600 18014KT 3SM -RADZ BR OVC007 WS020/22040KT
     FM231500 17016G22KT 4SM -DZ BR VCSH OVC007=



000
FTUS43 KILX 221700
TAFDEC
TAF
KDEC 221728Z 2218/2318 20016G23KT P6SM VCSH SCT035 BKN080
      TEMPO 2218/2220 BKN030
     FM222000 18012G20KT 6SM BR VCSH OVC025
     FM230000 18013G17KT 4SM BR VCSH OVC015 WS020/22040KT
     FM230600 17013KT 3SM -RADZ BR OVC010 WS020/22040KT
     FM231500 16014G20KT 4SM BR VCSH OVC010=



000
FTUS43 KILX 221700
TAFSPI
TAF
KSPI 221728Z 2218/2318 19016G24KT P6SM VCSH SCT030 BKN080
      TEMPO 2218/2219 BKN025
     FM221900 18012G20KT 6SM BR VCSH OVC025
     FM230000 18013G17KT 4SM BR VCSH OVC015 WS020/22040KT
     FM230600 17012KT 3SM -RADZ BR OVC010 WS020/22040KT
     FM231400 16014G20KT 4SM BR VCSH OVC010=



000
FTUS43 KILX 221700 AAB
TAFCMI
TAF AMD
KCMI 221708Z 2217/2312 20015G22KT P6SM VCSH BKN035 OVC090
      TEMPO 2217/2220 BKN025
     FM222000 19014G22KT 6SM BR VCSH OVC025
     FM230000 19013KT 4SM BR VCSH OVC015 WS020/22040KT
     FM230600 18013KT 4SM -RADZ BR OVC010 WS020/22040KT=



000
FTUS43 KILX 221700 AAB
TAFDEC
TAF AMD
KDEC 221707Z 2217/2312 20016G23KT P6SM VCSH SCT035 BKN080
      TEMPO 2217/2220 BKN030
     FM222000 18012G20KT 6SM BR VCSH OVC025
     FM230000 18012KT 4SM BR VCSH OVC015 WS020/22040KT
     FM230600 17012KT 4SM -RADZ BR OVC010 WS020/22040KT=



000
FTUS43 KILX 221700 AAB
TAFSPI
TAF AMD
KSPI 221706Z 2217/2312 19016G24KT P6SM VCSH SCT030 BKN080
      TEMPO 2217/2219 BKN025
     FM221900 18012G20KT 6SM BR VCSH OVC025
     FM230000 18012KT 4SM BR VCSH OVC015 WS020/22040KT
     FM230600 17012KT 4SM -RADZ BR OVC010 WS020/22040KT=



000
FTUS43 KILX 221700 AAC
TAFPIA
TAF AMD
KPIA 221705Z 2217/2312 19012G18KT P6SM VCSH OVC025
      TEMPO 2217/2220 5SM BR OVC018
     FM222000 20012G20KT 5SM BR VCSH OVC015
     FM230000 19010KT 4SM BR VCSH OVC010 WS020/22040KT
     FM230600 18010KT 4SM -RADZ BR OVC007 WS020/22040KT=



000
FTUS43 KILX 221700 AAB
TAFBMI
TAF AMD
KBMI 221705Z 2217/2312 20015G23KT P6SM VCSH OVC020
      TEMPO 2217/2220 BKN015
     FM222000 20015G22KT 5SM BR VCSH OVC015
     FM230000 19013KT 4SM BR VCSH OVC010 WS020/22040KT
     FM230600 18013KT 4SM -RADZ BR OVC007 WS020/22040KT=



000
FTUS43 KILX 221700 AAB
TAFPIA
TAF AMD
KPIA 221704Z 2217/2312 19012KT P6SM VCSH OVC025
      TEMPO 2217/2220 5SM BR OVC018
     FM222000 20012G20KT 5SM BR VCSH OVC015
     FM230000 19010KT 4SM BR VCSH OVC010 WS020/22040KT
     FM230600 18010KT 4SM -RADZ BR OVC007 WS020/22040KT=



000
FTUS43 KILX 221500 AAA
TAFDEC
TAF AMD
KDEC 221504Z 2215/2312 20014KT P6SM VCSH BKN040 WS020/22045KT
     FM221700 18012G20KT 5SM BR VCSH OVC025
     FM230000 18012KT 4SM BR VCSH OVC015 WS020/22040KT
     FM230600 17012KT 4SM -RADZ BR OVC010 WS020/22040KT=



000
FTUS43 KILX 221500 AAA
TAFSPI
TAF AMD
KSPI 221503Z 2215/2312 19015G20KT P6SM VCSH BKN035 BKN090
      WS020/22045KT
     FM221700 18012G20KT 5SM BR VCSH OVC025
     FM230000 18012KT 4SM BR VCSH OVC015 WS020/22040KT
     FM230600 17012KT 4SM -RADZ BR OVC010 WS020/22040KT=



000
FTUS43 KILX 221500 AAA
TAFPIA
TAF AMD
KPIA 221502Z 2215/2312 19012KT 5SM BR VCSH OVC018 WS020/22045KT
      TEMPO 2215/2217 6SM BR BKN025
     FM221700 20012G20KT 5SM BR VCSH OVC015
     FM230000 19010KT 4SM BR VCSH OVC010 WS020/22040KT
     FM230600 18010KT 4SM -RADZ BR OVC007 WS020/22040KT=



000
FTUS43 KILX 221500 AAA
TAFBMI
TAF AMD
KBMI 221501Z 2215/2312 20015KT P6SM VCSH OVC018 WS020/22045KT
      TEMPO 2215/2217 BKN025
     FM221700 20015G22KT 5SM BR VCSH OVC015
     FM230000 19013KT 4SM BR VCSH OVC010 WS020/22040KT
     FM230600 18013KT 4SM -RADZ BR OVC007 WS020/22040KT=



000
FTUS43 KILX 221400 AAA
TAFCMI
TAF AMD
KCMI 221450Z 2215/2312 19012KT P6SM VCSH BKN040 OVC090
      WS020/22045KT
     FM221700 19014G22KT 5SM BR VCSH OVC025
     FM230000 19013KT 4SM BR VCSH OVC015 WS020/22040KT
     FM230600 18013KT 4SM -RADZ BR OVC010 WS020/22040KT=



000
FTUS43 KILX 221100
TAFBMI
TAF
KBMI 221120Z 2212/2312 19015KT 5SM BR VCSH OVC015 WS020/22045KT
     FM221700 20015G22KT 5SM BR VCSH OVC015
     FM230000 19013KT 4SM BR VCSH OVC010 WS020/22040KT
     FM230600 18013KT 4SM -RADZ BR OVC007 WS020/22040KT=



000
FTUS43 KILX 221100
TAFCMI
TAF
KCMI 221120Z 2212/2312 19013KT 6SM BR VCSH OVC030 WS020/22045KT
     FM221700 19014G22KT 5SM BR VCSH OVC025
     FM230000 19013KT 4SM BR VCSH OVC015 WS020/22040KT
     FM230600 18013KT 4SM -RADZ BR OVC010 WS020/22040KT=



000
FTUS43 KILX 221100
TAFPIA
TAF
KPIA 221120Z 2212/2312 19012KT 4SM BR VCSH OVC010 WS020/22045KT
     FM221700 20012G20KT 5SM BR VCSH OVC015
     FM230000 19010KT 4SM BR VCSH OVC010 WS020/22040KT
     FM230600 18010KT 4SM -RADZ BR OVC007 WS020/22040KT=



000
FTUS43 KILX 221100
TAFSPI
TAF
KSPI 221120Z 2212/2312 19011KT 6SM BR VCSH OVC035 WS020/22045KT
     FM221700 18012G20KT 5SM BR VCSH OVC025
     FM230000 18012KT 4SM BR VCSH OVC015 WS020/22040KT
     FM230600 17012KT 4SM -RADZ BR OVC010 WS020/22040KT=



000
FTUS43 KILX 221100
TAFDEC
TAF
KDEC 221120Z 2212/2312 19011KT 6SM BR VCSH OVC035 WS020/22045KT
     FM221700 18012G20KT 5SM BR VCSH OVC025
     FM230000 18012KT 4SM BR VCSH OVC015 WS020/22040KT
     FM230600 17012KT 4SM -RADZ BR OVC010 WS020/22040KT=



000
FTUS43 KILX 220500
TAFPIA
TAF
KPIA 220534Z 2206/2306 18014KT 6SM -RADZ BKN015 OVC070
      WS020/23045KT
     FM221400 19012KT 6SM BR VCSH OVC015
     FM221700 20014G22KT 6SM BR VCSH OVC020
     FM230200 19010KT 3SM -RADZ BR OVC015=



000
FTUS43 KILX 220500
TAFDEC
TAF
KDEC 220534Z 2206/2306 18011KT P6SM -RADZ OVC015 WS020/23050KT
     FM221400 19014KT 6SM BR VCSH OVC015
     FM221700 19014G23KT 6SM BR OVC020
     FM230300 20012KT 4SM -RADZ BR OVC015=



000
FTUS43 KILX 220500
TAFCMI
TAF
KCMI 220534Z 2206/2306 15012KT P6SM -RADZ SCT015 OVC025
      WS020/23050KT
     FM221500 19015KT 6SM BR VCSH OVC015
     FM221700 20015G23KT 6SM BR OVC020
     FM230400 19011KT 4SM -RADZ BR OVC015=



000
FTUS43 KILX 220500
TAFBMI
TAF
KBMI 220534Z 2206/2306 17016KT P6SM -RADZ OVC015 WS020/23050KT
     FM221400 19015KT 6SM BR VCSH OVC015
     FM221700 20014G24KT 6SM BR VCSH OVC020
     FM230200 19013KT 3SM -RADZ BR OVC015=



000
FTUS43 KILX 220500
TAFSPI
TAF
KSPI 220534Z 2206/2306 17012KT P6SM -RADZ BKN020 OVC035
      WS020/23050KT
     FM221300 19014KT 6SM BR VCSH OVC015
     FM221700 19014G22KT 6SM BR OVC020
     FM230200 18011KT 4SM -RADZ BR OVC015=



000
FTUS43 KILX 220500 AAD
TAFDEC
TAF AMD
KDEC 220503Z 2205/2224 18011KT P6SM -RADZ OVC018
     FM220700 18012KT 6SM -RADZ BR OVC015 WS020/23050KT
     FM221400 19014KT 6SM BR VCSH OVC020 WS020/23050KT=



000
FTUS43 KILX 220500 AAD
TAFPIA
TAF AMD
KPIA 220502Z 2205/2224 18014KT 6SM -RADZ BKN015 OVC070
     FM220600 18013KT 5SM -RADZ BR OVC015 WS020/23045KT
     FM221400 19012KT 6SM BR VCSH OVC015 WS020/23045KT=



000
FTUS43 KILX 220500 AAC
TAFBMI
TAF AMD
KBMI 220502Z 2205/2224 17016KT P6SM -RADZ OVC015
     FM220700 18015KT 4SM -RADZ BR OVC015 WS020/23050KT
     FM221400 19015KT 6SM BR VCSH OVC015 WS020/23050KT=



000
FTUS43 KILX 220400 AAB
TAFSPI
TAF AMD
KSPI 220421Z 2204/2224 16012KT P6SM -RADZ BKN020 OVC035
     FM220600 18012KT 6SM -SHRA BR OVC020 WS020/23050KT
     FM221300 19014KT 6SM BR VCSH OVC020 WS020/23050KT=



000
FTUS43 KILX 220400 AAC
TAFDEC
TAF AMD
KDEC 220410Z 2204/2224 17011KT P6SM -RADZ OVC023
     FM220700 18012KT 6SM -RADZ BR OVC015 WS020/23050KT
     FM221400 19014KT 6SM BR VCSH OVC020 WS020/23050KT=



000
FTUS43 KILX 220400 AAC
TAFDEC
TAF AMD
KDEC 220410Z 2204/2224 17011KT P6SM -RADZ OVC023
     FM220700 18012KT 6SM -RADZ BR OVC015 WS020/23050KT
     FM221400 19014KT 6SM BR VCSH OVC020 WS020/23050KT=



000
FTUS43 KILX 220300 AAB
TAFCMI
TAF AMD
KCMI 220336Z 2204/2224 15012KT P6SM VCSH OVC025
     FM220400 16014KT 6SM -RADZ BR SCT015 OVC025
     FM220800 18012KT 6SM -SHRA BR OVC015 WS020/23050KT
     FM221500 19015KT 6SM BR VCSH OVC015 WS020/23050KT=



000
FTUS43 KILX 220300 AAB
TAFCMI
TAF AMD
KCMI 220336Z 2204/2224 15012KT P6SM VCSH OVC025
     FM220400 16014KT 6SM -RADZ BR SCT015 OVC025
     FM220800 18012KT 6SM -SHRA BR OVC015 WS020/23050KT
     FM221500 19015KT 6SM BR VCSH OVC015 WS020/23050KT=



000
FTUS43 KILX 220300 AAB
TAFBMI
TAF AMD
KBMI 220335Z 2204/2224 16014KT P6SM -RADZ OVC020
     FM220700 18013KT 4SM -RADZ BR OVC015 WS020/23050KT
     FM221400 19015KT 6SM BR VCSH OVC015 WS020/23050KT=



000
FTUS43 KILX 220300 AAB
TAFBMI
TAF AMD
KBMI 220335Z 2204/2224 16014KT P6SM -RADZ OVC020
     FM220700 18013KT 4SM -RADZ BR OVC015 WS020/23050KT
     FM221400 19015KT 6SM BR VCSH OVC015 WS020/23050KT=



000
FTUS43 KILX 220300 AAC
TAFPIA
TAF AMD
KPIA 220334Z 2204/2224 17013G20KT P6SM -RADZ OVC020
     FM220600 18013KT 5SM -RADZ BR OVC015 WS020/23045KT
     FM221400 19012KT 6SM BR VCSH OVC015 WS020/23045KT=



000
FTUS43 KILX 220200 AAA
TAFSPI
TAF AMD
KSPI 220222Z 2202/2224 15012G22KT 6SM -RADZ BR BKN025 OVC040
     FM220500 18012KT 6SM -SHRA BR OVC020 WS020/23050KT
     FM221300 19014KT 6SM BR VCSH OVC020 WS020/23050KT=



000
FTUS43 KILX 220200 AAA
TAFBMI
TAF AMD
KBMI 220221Z 2202/2224 16014KT P6SM OVC035
     FM220300 16014KT 6SM -RADZ BR SCT015 BKN025
      TEMPO 2203/2204 6SM -FZRA OVC015
     FM220700 18013KT 4SM -SHRA BR OVC015 WS020/23050KT
     FM221400 19015KT 6SM BR VCSH OVC015 WS020/23050KT=



000
FTUS43 KILX 220200 AAB
TAFDEC
TAF AMD
KDEC 220221Z 2202/2224 16010KT P6SM BKN035 OVC045
     FM220300 16012KT P6SM -RA SCT015 BKN035
      TEMPO 2203/2205 6SM -FZRA BR OVC025
     FM220700 18012KT 6SM -SHRA BR OVC015 WS020/23050KT
     FM221400 19014KT 6SM BR VCSH OVC020 WS020/23050KT=



000
FTUS43 KILX 220200 AAB
TAFPIA
TAF AMD
KPIA 220221Z 2202/2224 16013KT P6SM VCSH BKN020 OVC030
     FM220300 16014KT P6SM -RADZ SCT015 BKN020
      TEMPO 2203/2204 6SM -FZRA OVC015
     FM220600 18013KT 5SM -SHRA BR OVC015 WS020/23045KT
     FM221400 19012KT 6SM BR VCSH OVC015 WS020/23045KT=



000
FTUS43 KILX 220200 AAA
TAFCMI
TAF AMD
KCMI 220221Z 2202/2224 14010KT P6SM OVC045
     FM220400 14013KT 6SM -RADZ BR SCT015 BKN030
      TEMPO 2204/2205 6SM -FZRA OVC020
     FM220800 18012KT 6SM -SHRA BR OVC015 WS020/23050KT
     FM221500 19015KT 6SM BR VCSH OVC015 WS020/23050KT=



000
FTUS43 KILX 220100 AAA
TAFDEC
TAF AMD
KDEC 220103Z 2201/2224 15010KT P6SM FEW040 OVC050
     FM220300 15012KT P6SM -RA SCT015 BKN035
      TEMPO 2203/2205 6SM -FZRA BR OVC025
     FM220700 18012KT 6SM -SHRA BR OVC015 WS020/23050KT
     FM221400 19014KT 6SM BR VCSH OVC020 WS020/23050KT=



000
FTUS43 KILX 220100 AAA
TAFPIA
TAF AMD
KPIA 220103Z 2201/2224 16009KT P6SM OVC028
     FM220300 16011KT P6SM -RA SCT015 BKN025
      TEMPO 2203/2205 6SM -FZRA OVC015
     FM220600 18011KT 5SM -SHRA BR OVC015 WS020/23045KT
     FM221400 19012KT 6SM BR VCSH OVC015 WS020/23045KT=



000
FTUS43 KILX 212300
TAFSPI
TAF
KSPI 212327Z 2200/2224 15010KT P6SM OVC040
      TEMPO 2201/2202 6SM -RADZ BR OVC025
     FM220200 18012KT 6SM -SHRA BR OVC020 WS020/23050KT
     FM221300 19014KT 6SM BR VCSH OVC020 WS020/23050KT=



000
FTUS43 KILX 212300
TAFPIA
TAF
KPIA 212327Z 2200/2224 15009KT P6SM BKN035
     FM220200 16011KT 6SM -FZRA BR SCT015 BKN025
     FM220600 18011KT 5SM -SHRA BR OVC015 WS020/23045KT
     FM221400 19012KT 6SM BR VCSH OVC015 WS020/23045KT=



000
FTUS43 KILX 212300
TAFDEC
TAF
KDEC 212327Z 2200/2224 14009KT P6SM OVC035
     FM220100 15012KT P6SM -RA SCT015 BKN030
      TEMPO 2201/2204 6SM -FZRA BR OVC025
     FM220700 18012KT 6SM -SHRA BR OVC015 WS020/23050KT
     FM221400 19014KT 6SM BR VCSH OVC020 WS020/23050KT=



000
FTUS43 KILX 212300
TAFBMI
TAF
KBMI 212327Z 2200/2224 16011KT P6SM BKN035
     FM220300 16013KT 6SM -FZRA BR SCT015 BKN025
     FM220700 18013KT 4SM -SHRA BR OVC015 WS020/23050KT
     FM221400 19015KT 6SM BR VCSH OVC015 WS020/23050KT=



000
FTUS43 KILX 212300
TAFCMI
TAF
KCMI 212327Z 2200/2224 13009KT P6SM BKN040
     FM220400 14013KT 6SM -FZRA BR SCT015 BKN030
     FM220800 18012KT 6SM -SHRA BR OVC015 WS020/23050KT
     FM221500 19015KT 6SM BR VCSH OVC015 WS020/23050KT=



000
FTUS43 KILX 211700 AAA
TAFPIA
TAF AMD
KPIA 211756Z 2118/2218 15010KT P6SM SCT250
     FM212200 16011KT P6SM BKN040 BKN200
     FM220200 16011KT 6SM -FZRA BR SCT015 BKN030
     FM220600 18011KT 5SM -SHRA BR OVC015 WS020/23045KT
     FM221400 19012KT 6SM BR VCSH OVC015 WS020/23045KT=



000
FTUS43 KILX 211700 AAA
TAFBMI
TAF AMD
KBMI 211756Z 2118/2218 15012KT P6SM SCT250
     FM212200 16013KT P6SM BKN040 BKN200
     FM220300 16013KT 6SM -FZRA BR SCT015 BKN030
     FM220700 18013KT 4SM -SHRA BR OVC015 WS020/23050KT
     FM221400 19015KT 6SM BR VCSH OVC015 WS020/23050KT=



000
FTUS43 KILX 211700 AAA
TAFCMI
TAF AMD
KCMI 211755Z 2118/2218 13012KT P6SM SCT250
     FM212300 14013KT P6SM BKN040 BKN200
     FM220300 14013KT 6SM -FZRA BR SCT015 BKN030
     FM220800 18012KT 6SM -SHRA BR OVC015 WS020/23050KT
     FM221500 19015KT 6SM BR VCSH OVC015 WS020/23050KT=



000
FTUS43 KILX 211700 AAA
TAFSPI
TAF AMD
KSPI 211754Z 2118/2218 14011KT P6SM SCT250
     FM212100 15012KT P6SM BKN040 BKN200
     FM220000 15012KT P6SM -RA SCT015 BKN030
      TEMPO 2201/2203 6SM -FZRA BR
     FM220600 18012KT 6SM -SHRA BR OVC015 WS020/23050KT
     FM221300 19014KT 6SM BR VCSH OVC020 WS020/23050KT=



000
FTUS43 KILX 211700 AAA
TAFDEC
TAF AMD
KDEC 211754Z 2118/2218 14010KT P6SM SCT250
     FM212200 15011KT P6SM BKN040 BKN200
     FM220100 15012KT P6SM -RA SCT015 BKN030
      TEMPO 2202/2204 6SM -FZRA BR
     FM220700 18012KT 6SM -SHRA BR OVC015 WS020/23050KT
     FM221400 19014KT 6SM BR VCSH OVC020 WS020/23050KT=



000
FTUS43 KILX 211700
TAFDEC
TAF
KDEC 211736Z 2118/2218 14010KT P6SM SCT250
     FM212100 15011KT P6SM SCT050 BKN200
     FM220200 15012KT P6SM -RA SCT015 BKN030
      TEMPO 2202/2204 6SM -FZRA BR
     FM220700 18012KT 6SM -SHRA BR OVC015 WS020/23050KT
     FM221400 19014KT 6SM BR VCSH OVC020 WS020/23050KT=



000
FTUS43 KILX 211700
TAFPIA
TAF
KPIA 211736Z 2118/2218 15010KT P6SM SCT250
     FM212100 16011KT P6SM SCT050 BKN200
     FM220200 16011KT 6SM -FZRA BR SCT015 BKN030
     FM220600 18011KT 5SM -SHRA BR OVC015 WS020/23045KT
     FM221400 19012KT 6SM BR VCSH OVC015 WS020/23045KT=



000
FTUS43 KILX 211700
TAFCMI
TAF
KCMI 211736Z 2118/2218 13012KT P6SM SCT250
     FM212200 14013KT P6SM SCT050 BKN200
     FM220400 14013KT 6SM -FZRA BR SCT015 BKN030
     FM220800 18012KT 6SM -SHRA BR OVC015 WS020/23050KT
     FM221500 19015KT 6SM BR VCSH OVC015 WS020/23050KT=



000
FTUS43 KILX 211700
TAFSPI
TAF
KSPI 211736Z 2118/2218 14011KT P6SM SCT250
     FM212000 15012KT P6SM SCT050 BKN200
     FM220100 15012KT P6SM -RA BKN030
      TEMPO 2201/2203 6SM -FZRA BR
     FM220600 18012KT 6SM -SHRA BR OVC015 WS020/23050KT
     FM221300 19014KT 6SM BR VCSH OVC020 WS020/23050KT=



000
FTUS43 KILX 211700
TAFBMI
TAF
KBMI 211736Z 2118/2218 15012KT P6SM SCT250
     FM212100 16013KT P6SM SCT050 BKN200
     FM220300 16013KT 6SM -FZRA BR SCT015 BKN030
     FM220700 18013KT 4SM -SHRA BR OVC015 WS020/23050KT
     FM221400 19015KT 6SM BR VCSH OVC015 WS020/23050KT=



000
FTUS43 KILX 211100 RRA
TAFDEC
TAF
KDEC 211146Z 2112/2212 VRB06KT P6SM SKC
     FM211500 13010KT P6SM SCT150
     FM220300 15012KT P6SM -RA OVC030
      TEMPO 2203/2205 -FZRA
     FM220700 19012KT P6SM -SHRA OVC015=



000
FTUS43 KILX 211100 RRA
TAFBMI
TAF
KBMI 211146Z 2112/2212 VRB06KT P6SM SKC
     FM211500 14012KT P6SM SCT150
     FM220300 16013KT P6SM -FZRA OVC030
     FM220700 19013KT P6SM -SHRA OVC015=



000
FTUS43 KILX 211100 RRA
TAFCMI
TAF
KCMI 211146Z 2112/2212 VRB05KT P6SM SKC
     FM211600 13010KT P6SM SCT150
     FM220500 14012KT P6SM -FZRA OVC030
     FM220900 19013KT P6SM -SHRA OVC015=



000
FTUS43 KILX 211100 RRA
TAFPIA
TAF
KPIA 211146Z 2112/2212 VRB03KT P6SM SKC
     FM211500 14010KT P6SM SCT150
     FM220200 16013KT P6SM -FZRA OVC030
     FM220700 19012KT P6SM -SHRA OVC015=



000
FTUS43 KILX 211100 RRA
TAFSPI
TAF
KSPI 211146Z 2112/2212 VRB05KT P6SM SKC
     FM211500 13010KT P6SM SCT150
     FM220100 15012KT P6SM -RA OVC030
      TEMPO 2201/2203 -FZRA
     FM220700 19012KT P6SM -SHRA OVC015=



000
FTUS43 KILX 210500
TAFPIA
TAF
KPIA 210536Z 2106/2206 VRB03KT P6SM SKC
     FM211500 14010KT P6SM SCT150
     FM220200 16013KT P6SM -FZRA OVC045=



000
FTUS43 KILX 210500
TAFDEC
TAF
KDEC 210536Z 2106/2206 36006KT P6SM SKC
     FM211500 13010KT P6SM SCT150
     FM220300 15012KT P6SM -RA OVC045
      TEMPO 2203/2205 -FZRA OVC040=



000
FTUS43 KILX 210500
TAFSPI
TAF
KSPI 210536Z 2106/2206 01004KT P6SM SKC
     FM211500 13010KT P6SM SCT150
     FM220100 15012KT P6SM -RA OVC045
      TEMPO 2201/2203 -FZRA OVC040=



000
FTUS43 KILX 210500
TAFBMI
TAF
KBMI 210536Z 2106/2206 33006KT P6SM SKC
     FM211500 14012KT P6SM SCT150
     FM220300 16013KT P6SM -FZRA OVC045=



000
FTUS43 KILX 210500
TAFCMI
TAF
KCMI 210536Z 2106/2206 33005KT P6SM SKC
     FM211600 13010KT P6SM SCT150
     FM220500 14012KT P6SM -FZRA OVC045=



000
FTUS43 KILX 202300
TAFBMI
TAF
KBMI 202338Z 2100/2124 29009KT P6SM SKC
     FM211500 15012KT P6SM SCT150=



000
FTUS43 KILX 202300
TAFDEC
TAF
KDEC 202338Z 2100/2124 26006KT P6SM SKC
     FM211500 14010KT P6SM SCT150=



000
FTUS43 KILX 202300
TAFPIA
TAF
KPIA 202338Z 2100/2124 30006KT P6SM SKC
     FM211500 15010KT P6SM SCT150=



000
FTUS43 KILX 202300
TAFCMI
TAF
KCMI 202338Z 2100/2124 26008KT P6SM SKC
     FM211600 13011KT P6SM SCT150=



000
FTUS43 KILX 202300
TAFSPI
TAF
KSPI 202338Z 2100/2124 28005KT P6SM SKC
     FM211500 14010KT P6SM SCT150=



000
FTUS43 KILX 201700
TAFCMI
TAF
KCMI 201721Z 2018/2118 27014G22KT P6SM SCT035
     FM210000 29005KT P6SM SKC
     FM211600 15008KT P6SM SCT150=



000
FTUS43 KILX 201700
TAFPIA
TAF
KPIA 201721Z 2018/2118 27012G18KT P6SM SCT035
     FM210000 28005KT P6SM SKC
     FM211500 15010KT P6SM SCT150=



000
FTUS43 KILX 201700
TAFBMI
TAF
KBMI 201721Z 2018/2118 27013G20KT P6SM SCT035
     FM210000 29005KT P6SM SKC
     FM211500 15012KT P6SM SCT150=



000
FTUS43 KILX 201700
TAFSPI
TAF
KSPI 201721Z 2018/2118 27014G22KT P6SM SCT035
     FM210000 29005KT P6SM SKC
     FM211500 15010KT P6SM SCT150=



000
FTUS43 KILX 201700
TAFDEC
TAF
KDEC 201721Z 2018/2118 27012G18KT P6SM SCT035
     FM210000 29005KT P6SM SKC
     FM211500 15008KT P6SM SCT150=



000
FTUS43 KILX 201300 AAA
TAFCMI
TAF AMD
KCMI 201346Z 2014/2112 27016KT P6SM SCT035
     FM210000 29005KT P6SM SKC=



000
FTUS43 KILX 201300 AAA
TAFBMI
TAF AMD
KBMI 201300Z 2013/2112 27015KT P6SM SCT030
     FM210000 29008KT P6SM SKC=



000
FTUS43 KILX 201200 AAA
TAFPIA
TAF AMD
KPIA 201259Z 2013/2112 27012KT P6SM SCT030
     FM210000 28005KT P6SM SKC=



000
FTUS43 KILX 201100
TAFSPI
TAF
KSPI 201136Z 2012/2112 27008KT P6SM SCT035
     FM201300 27012KT P6SM BKN035
     FM201600 27012KT P6SM SCT035
     FM210000 29005KT P6SM SKC=



000
FTUS43 KILX 201100
TAFCMI
TAF
KCMI 201136Z 2012/2112 27008KT P6SM SCT035
     FM201400 27012KT P6SM BKN035
     FM201800 27015KT P6SM SCT035
     FM210000 29005KT P6SM SKC=



000
FTUS43 KILX 201100
TAFPIA
TAF
KPIA 201136Z 2012/2112 27009KT P6SM BKN030
     FM201600 28012KT P6SM SCT030
     FM210000 28005KT P6SM SKC=



000
FTUS43 KILX 201100
TAFDEC
TAF
KDEC 201136Z 2012/2112 27008KT P6SM SCT035
     FM201330 27012KT P6SM BKN035
     FM201700 27015KT P6SM SCT035
     FM210000 29005KT P6SM SKC=



000
FTUS43 KILX 201100
TAFBMI
TAF
KBMI 201136Z 2012/2112 27009KT P6SM SCT030
     FM201300 27013KT P6SM BKN030
     FM201600 28015KT P6SM SCT030
     FM210000 29008KT P6SM SKC=



000
FTUS43 KILX 200500
TAFSPI
TAF
KSPI 200538Z 2006/2106 28009KT P6SM -SN OVC040
     FM201000 29008KT P6SM SCT035
     FM201600 27012KT P6SM SCT025
     FM210000 29005KT P6SM SKC=



000
FTUS43 KILX 200500
TAFBMI
TAF
KBMI 200538Z 2006/2106 27009KT P6SM -SN OVC035
     FM200800 27009KT P6SM SCT035
     FM201600 28014KT P6SM SCT025
     FM210000 29008KT P6SM SKC=



000
FTUS43 KILX 200500
TAFCMI
TAF
KCMI 200538Z 2006/2106 28013KT P6SM -SN OVC035
     FM201000 27008KT P6SM SCT035
     FM201600 27012KT P6SM SCT025
     FM210000 28006KT P6SM SKC=



000
FTUS43 KILX 200500
TAFDEC
TAF
KDEC 200538Z 2006/2106 28009KT P6SM -SN OVC040
     FM201000 27008KT P6SM SCT035
     FM201600 27012KT P6SM SCT025
     FM210000 29005KT P6SM SKC=



000
FTUS43 KILX 200500
TAFPIA
TAF
KPIA 200538Z 2006/2106 27010KT P6SM -SN BKN040
     FM200700 27009KT P6SM SCT040
     FM201600 28012KT P6SM SCT025
     FM210000 28005KT P6SM SKC=



000
FTUS43 KILX 200500 AAB
TAFSPI
TAF AMD
KSPI 200510Z 2005/2024 28009KT P6SM OVC040
     FM200800 29008KT P6SM SCT035
     FM201600 27012KT P6SM SCT025=



000
FTUS43 KILX 200200 AAB
TAFCMI
TAF AMD
KCMI 200226Z 2002/2024 30015G23KT P6SM -SN OVC029
     FM200500 28015KT P6SM BKN035
     FM200800 27008KT P6SM SCT035
     FM201600 27012KT P6SM SCT025=



000
FTUS43 KILX 200200 AAB
TAFCMI
TAF AMD
KCMI 200226Z 2002/2024 30015G23KT P6SM -SN OVC029
     FM200500 28015KT P6SM BKN035
     FM200800 27008KT P6SM SCT035
     FM201600 27012KT P6SM SCT025=



000
FTUS43 KILX 200200 AAA
TAFCMI
TAF AMD
KCMI 200201Z 2002/2024 29015KT P6SM -SN OVC035
     FM200500 28015KT P6SM BKN035
     FM200800 27008KT P6SM SCT035
     FM201600 27012KT P6SM SCT025=



000
FTUS43 KILX 200100 AAA
TAFSPI
TAF AMD
KSPI 200158Z 2002/2024 32014G20KT P6SM OVC035
     FM200300 31014KT P6SM BKN035
     FM200600 29008KT P6SM SCT035
     FM201600 27012KT P6SM SCT025=



000
FTUS43 KILX 200100 AAA
TAFPIA
TAF AMD
KPIA 200156Z 2002/2024 29012G18KT P6SM -SN OVC035
     FM200300 28014KT P6SM BKN035
     FM200600 26008KT P6SM SCT035
     FM201600 28012KT P6SM SCT025=



000
FTUS43 KILX 200100 AAA
TAFBMI
TAF AMD
KBMI 200155Z 2002/2024 28016G26KT P6SM -SN BKN029
     FM200300 28015KT P6SM BKN035
     FM200700 27010KT P6SM SCT035
     FM201600 28014KT P6SM SCT025=



000
FTUS43 KILX 192300 RRA
TAFDEC
TAF
KDEC 192342Z 2000/2024 29012G20KT P6SM BKN035
     FM200500 28014KT P6SM BKN035
     FM200700 27008KT P6SM SCT035
     FM201600 27012KT P6SM SCT025=



000
FTUS43 KILX 192300 RRA
TAFBMI
TAF
KBMI 192342Z 2000/2024 28016G26KT P6SM -SN BKN035
     FM200300 28015KT P6SM BKN035
     FM200700 27010KT P6SM SCT035
     FM201600 28014KT P6SM SCT025=



000
FTUS43 KILX 192300 RRA
TAFSPI
TAF
KSPI 192342Z 2000/2024 28012G20KT P6SM BKN035
     FM200300 28014KT P6SM BKN035
     FM200600 27008KT P6SM SCT035
     FM201600 27012KT P6SM SCT025=



000
FTUS43 KILX 192300 RRA
TAFPIA
TAF
KPIA 192342Z 2000/2024 29014G28KT P6SM -SN OVC035
     FM200300 28014KT P6SM BKN035
     FM200600 26008KT P6SM SCT035
     FM201600 28012KT P6SM SCT025=



000
FTUS43 KILX 192300 RRA
TAFCMI
TAF
KCMI 192342Z 2000/2024 28016G26KT P6SM -SN OVC035
     FM200500 28015KT P6SM BKN035
     FM200800 27008KT P6SM SCT035
     FM201600 27012KT P6SM SCT025=



    US Dept of Commerce
    National Oceanic and Atmospheric Administration
    National Weather Service
    1325 East West Highway
    Silver Spring, MD 20910
    Page Author: NWS Internet Services Team
Disclaimer
Information Quality
Credits
Glossary
Privacy Policy
Freedom of Information Act (FOIA)
About Us
Career Opportunities